createdAt,value
2019-04-26T00:04:16.243Z,1.07
2019-04-26T00:07:03.259Z,0.87
2019-04-26T00:10:07.440Z,1.40
2019-04-26T00:13:12.599Z,0.93
2019-04-26T00:16:36.403Z,1.73
2019-04-26T00:18:44.403Z,1.20
2019-04-26T00:22:39.902Z,0.90
2019-04-26T00:24:38.445Z,1.00
2019-04-26T00:27:21.302Z,1.17
2019-04-26T00:29:58.880Z,1.40
2019-04-26T00:32:27.594Z,1.00
2019-04-26T00:34:56.312Z,1.07
2019-04-26T00:37:25.026Z,1.13
2019-04-26T00:39:53.630Z,1.47
2019-04-26T00:42:22.729Z,1.10
2019-04-26T00:44:51.486Z,1.43
2019-04-26T00:47:21.151Z,1.30
2019-04-26T00:49:50.392Z,1.00
2019-04-26T00:52:19.569Z,1.30
2019-04-26T00:54:48.378Z,1.10
2019-04-26T00:57:18.281Z,1.10
2019-04-26T00:59:47.880Z,1.63
2019-04-26T01:02:22.820Z,1.30
2019-04-26T01:04:51.532Z,1.17
2019-04-26T01:07:21.164Z,1.93
2019-04-26T01:09:50.173Z,1.10
2019-04-26T01:12:19.714Z,1.30
2019-04-26T01:14:48.473Z,1.20
2019-04-26T01:17:18.600Z,1.60
2019-04-26T01:19:49.119Z,1.30
2019-04-26T01:22:21.806Z,1.50
2019-04-26T01:24:50.673Z,1.63
2019-04-26T01:27:21.317Z,1.60
2019-04-26T01:29:51.871Z,1.33
2019-04-26T01:32:21.987Z,1.43
2019-04-26T01:34:51.985Z,1.90
2019-04-26T01:37:20.773Z,2.00
2019-04-26T01:39:54.876Z,1.63
2019-04-26T01:42:36.597Z,1.83
2019-04-26T01:45:14.261Z,2.17
2019-04-26T01:47:43.270Z,2.00
2019-04-26T01:50:12.977Z,2.00
2019-04-26T01:52:43.012Z,1.60
2019-04-26T01:55:12.535Z,1.87
2019-04-26T01:57:41.719Z,2.30
2019-04-26T02:00:32.038Z,1.73
2019-04-26T02:03:04.255Z,1.50
2019-04-26T02:05:32.955Z,2.00
2019-04-26T02:08:01.632Z,2.00
2019-04-26T02:10:30.716Z,2.20
2019-04-26T02:13:00.886Z,2.37
2019-04-26T02:15:33.356Z,1.87
2019-04-26T02:18:02.520Z,2.20
2019-04-26T02:20:50.558Z,1.50
2019-04-26T02:23:26.367Z,2.10
2019-04-26T02:25:55.118Z,1.73
2019-04-26T02:28:25.533Z,2.00
2019-04-26T02:30:54.659Z,2.07
2019-04-26T02:33:25.299Z,2.13
2019-04-26T02:35:54.394Z,1.87
2019-04-26T02:38:23.086Z,2.50
2019-04-26T02:40:52.562Z,2.27
2019-04-26T02:43:23.010Z,2.87
2019-04-26T02:46:16.797Z,2.30
2019-04-26T02:49:07.924Z,3.03
2019-04-26T02:51:41.363Z,2.17
2019-04-26T02:54:18.866Z,2.77
2019-04-26T02:56:48.793Z,2.47
2019-04-26T02:59:32.455Z,2.20
2019-04-26T03:02:03.745Z,2.80
2019-04-26T03:04:34.619Z,2.80
2019-04-26T03:07:09.499Z,2.43
2019-04-26T03:09:40.229Z,2.33
2019-04-26T03:12:13.259Z,2.77
2019-04-26T03:15:12.777Z,2.47
2019-04-26T03:17:45.831Z,3.07
2019-04-26T03:20:16.408Z,2.73
2019-04-26T03:22:53.267Z,2.77
2019-04-26T03:25:40.655Z,3.30
2019-04-26T03:28:24.220Z,3.10
2019-04-26T03:31:04.794Z,2.70
2019-04-26T03:34:34.277Z,2.70
2019-04-26T03:37:56.375Z,3.00
2019-04-26T03:40:44.654Z,3.80
2019-04-26T03:43:34.326Z,3.10
2019-04-26T03:46:33.581Z,2.90
2019-04-26T03:49:47.056Z,3.47
2019-04-26T03:52:36.974Z,3.40
2019-04-26T03:55:29.432Z,4.10
2019-04-26T03:58:04.218Z,5.07
2019-04-26T04:00:43.397Z,3.60
2019-04-26T04:03:48.214Z,3.23
2019-04-26T04:06:23.188Z,4.90
2019-04-26T04:08:59.887Z,4.60
2019-04-26T04:11:37.499Z,4.53
2019-04-26T04:14:19.225Z,4.70
2019-04-26T04:17:06.438Z,5.10
2019-04-26T04:20:11.070Z,5.00
2019-04-26T04:22:45.838Z,5.30
2019-04-26T04:25:19.256Z,5.57
2019-04-26T04:27:58.645Z,5.83
2019-04-26T04:30:53.344Z,5.23
2019-04-26T04:33:29.153Z,4.70
2019-04-26T04:36:03.959Z,5.00
2019-04-26T04:38:53.509Z,5.47
2019-04-26T04:41:41.048Z,5.03
2019-04-26T04:44:22.465Z,4.87
2019-04-26T04:47:31.629Z,5.97
2019-04-26T04:50:16.544Z,5.10
2019-04-26T04:53:26.149Z,5.27
2019-04-26T04:56:36.031Z,6.13
2019-04-26T04:59:10.458Z,6.00
2019-04-26T05:02:35.085Z,7.10
2019-04-26T05:05:39.976Z,6.87
2019-04-26T05:08:18.179Z,6.20
2019-04-26T05:10:56.235Z,6.70
2019-04-26T05:13:46.280Z,6.37
2019-04-26T05:16:44.967Z,7.17
2019-04-26T05:19:48.533Z,6.90
2019-04-26T05:23:02.177Z,6.33
2019-04-26T05:26:25.761Z,6.30
2019-04-26T05:29:46.581Z,7.27
2019-04-26T05:32:52.909Z,6.77
2019-04-26T05:35:51.045Z,7.10
2019-04-26T05:39:06.912Z,7.47
2019-04-26T05:42:10.455Z,8.20
2019-04-26T05:45:35.007Z,6.73
2019-04-26T05:48:35.226Z,6.30
2019-04-26T05:51:46.011Z,6.93
2019-04-26T05:55:06.965Z,6.20
2019-04-26T05:58:07.339Z,5.30
2019-04-26T06:01:08.711Z,6.13
2019-04-26T06:04:28.360Z,6.10
2019-04-26T06:07:15.761Z,6.00
2019-04-26T06:10:18.944Z,5.50
2019-04-26T06:13:29.792Z,5.10
2019-04-26T06:16:23.264Z,4.60
2019-04-26T06:19:09.783Z,4.67
2019-04-26T06:21:57.916Z,4.70
2019-04-26T06:24:53.976Z,4.90
2019-04-26T06:28:00.597Z,4.07
2019-04-26T06:30:54.407Z,4.90
2019-04-26T06:33:49.911Z,4.50
2019-04-26T06:36:25.969Z,4.07
2019-04-26T06:39:20.253Z,4.40
2019-04-26T06:42:13.484Z,5.17
2019-04-26T06:45:40.033Z,5.30
2019-04-26T06:48:21.371Z,4.77
2019-04-26T06:50:59.809Z,5.23
2019-04-26T06:53:57.145Z,5.87
2019-04-26T06:57:10.589Z,5.00
2019-04-26T07:00:16.477Z,5.60
2019-04-26T07:03:23.348Z,5.27
2019-04-26T07:05:59.035Z,4.77
2019-04-26T07:09:00.560Z,5.13
2019-04-26T07:12:27.763Z,5.20
2019-04-26T07:16:16.479Z,6.50
2019-04-26T07:19:34.798Z,8.10
2019-04-26T07:22:40.597Z,5.90
2019-04-26T07:25:55.781Z,5.30
2019-04-26T07:29:11.172Z,6.30
2019-04-26T07:32:00.785Z,6.07
2019-04-26T07:35:09.776Z,6.10
2019-04-26T07:39:10.561Z,6.17
2019-04-26T07:42:21.102Z,7.17
2019-04-26T07:45:56.768Z,5.80
2019-04-26T07:49:36.781Z,6.70
2019-04-26T07:52:43.876Z,6.57
2019-04-26T07:55:49.270Z,6.30
2019-04-26T07:59:51.215Z,6.80
2019-04-26T08:02:51.602Z,5.40
2019-04-26T08:05:46.534Z,6.27
2019-04-26T08:08:28.760Z,5.47
2019-04-26T08:11:34.741Z,5.47
2019-04-26T08:14:12.591Z,5.47
2019-04-26T08:20:36.767Z,6.10
2019-04-26T08:23:14.566Z,6.10
2019-04-26T08:25:39.006Z,5.13
2019-04-26T08:28:09.969Z,5.27
2019-04-26T08:30:44.921Z,6.00
2019-04-26T08:33:16.109Z,5.60
2019-04-26T08:35:48.937Z,5.83
2019-04-26T08:38:22.312Z,5.63
2019-04-26T08:40:48.454Z,5.60
2019-04-26T08:43:27.324Z,5.50
2019-04-26T08:46:16.968Z,4.80
2019-04-26T08:49:02.161Z,4.33
2019-04-26T08:51:31.726Z,4.90
2019-04-26T08:54:01.424Z,5.20
2019-04-26T08:56:33.923Z,4.70
2019-04-26T08:59:08.906Z,5.47
2019-04-26T09:01:46.686Z,4.63
2019-04-26T09:04:30.663Z,4.57
2019-04-26T09:07:10.965Z,4.60
2019-04-26T09:09:41.281Z,4.80
2019-04-26T09:12:22.486Z,4.30
2019-04-26T09:14:47.534Z,4.97
2019-04-26T09:17:16.331Z,5.40
2019-04-26T09:19:45.060Z,4.80
2019-04-26T09:22:22.627Z,4.90
2019-04-26T09:24:59.499Z,5.10
2019-04-26T09:27:38.652Z,5.27
2019-04-26T09:30:34.395Z,5.00
2019-04-26T09:33:10.500Z,5.20
2019-04-26T09:35:39.421Z,5.20
2019-04-26T09:38:08.204Z,4.53
2019-04-26T09:40:36.811Z,4.87
2019-04-26T09:43:20.039Z,4.67
2019-04-26T09:46:04.893Z,5.17
2019-04-26T09:48:37.484Z,4.67
2019-04-26T09:51:06.775Z,5.03
2019-04-26T09:53:35.415Z,4.30
2019-04-26T09:56:04.170Z,4.33
2019-04-26T09:58:32.969Z,4.10
2019-04-26T10:01:01.747Z,4.43
2019-04-26T10:03:30.522Z,4.63
2019-04-26T10:05:59.234Z,4.50
2019-04-26T10:08:27.859Z,4.47
2019-04-26T10:10:56.509Z,5.00
2019-04-26T10:13:32.839Z,4.97
2019-04-26T10:16:33.507Z,5.13
2019-04-26T10:19:08.355Z,5.23
2019-04-26T10:21:36.986Z,10.07
2019-04-26T10:24:08.186Z,10.50
2019-04-26T10:26:36.130Z,7.43
2019-04-26T10:29:05.116Z,6.77
2019-04-26T10:31:33.784Z,5.77
2019-04-26T10:34:02.676Z,6.23
2019-04-26T10:36:31.523Z,5.20
2019-04-26T10:39:01.435Z,5.50
2019-04-26T10:41:30.226Z,5.63
2019-04-26T10:43:58.891Z,5.30
2019-04-26T10:46:28.290Z,5.53
2019-04-26T10:49:08.286Z,5.50
2019-04-26T10:51:38.586Z,5.53
2019-04-26T10:54:16.194Z,5.67
2019-04-26T10:56:59.235Z,4.50
2019-04-26T10:59:45.918Z,5.33
2019-04-26T11:02:17.912Z,5.57
2019-04-26T11:04:47.761Z,5.03
2019-04-26T11:07:16.557Z,5.43
2019-04-26T11:09:45.337Z,5.83
2019-04-26T11:12:15.714Z,5.30
2019-04-26T11:14:44.539Z,5.53
2019-04-26T11:17:16.036Z,7.03
2019-04-26T11:19:45.951Z,8.27
2019-04-26T11:22:14.701Z,7.50
2019-04-26T11:24:43.430Z,7.27
2019-04-26T11:27:12.312Z,6.30
2019-04-26T11:29:40.871Z,6.53
2019-04-26T11:32:09.762Z,6.63
2019-04-26T11:34:38.394Z,7.40
2019-04-26T11:37:08.380Z,7.03
2019-04-26T11:39:40.492Z,5.27
2019-04-26T11:42:07.919Z,7.50
2019-04-26T11:45:17.316Z,7.67
2019-04-26T11:47:55.806Z,5.57
2019-04-26T11:50:17.850Z,5.50
2019-04-26T11:53:47.769Z,5.60
2019-04-26T11:56:20.405Z,4.67
2019-04-26T11:58:52.425Z,4.60
2019-04-26T12:01:21.486Z,4.67
2019-04-26T12:04:07.802Z,4.00
2019-04-26T12:06:49.177Z,4.43
2019-04-26T12:09:31.160Z,5.17
2019-04-26T12:12:22.349Z,4.33
2019-04-26T12:14:54.783Z,4.23
2019-04-26T12:17:23.509Z,4.57
2019-04-26T12:19:53.327Z,3.83
2019-04-26T12:22:22.146Z,4.00
2019-04-26T12:24:51.015Z,3.90
2019-04-26T12:27:19.892Z,3.90
2019-04-26T12:29:49.817Z,4.00
2019-04-26T12:32:18.803Z,4.23
2019-04-26T12:34:47.487Z,3.90
2019-04-26T12:37:19.891Z,3.53
2019-04-26T12:39:46.739Z,4.40
2019-04-26T12:42:21.746Z,3.67
2019-04-26T12:48:45.958Z,3.70
2019-04-26T12:51:28.592Z,3.87
2019-04-26T12:57:18.086Z,3.83
2019-04-26T13:00:03.678Z,4.00
2019-04-26T13:02:32.481Z,4.10
2019-04-26T13:05:01.550Z,4.10
2019-04-26T13:07:33.494Z,3.30
2019-04-26T13:10:37.814Z,4.07
2019-04-26T13:13:22.163Z,3.77
2019-04-26T13:16:26.299Z,3.30
2019-04-26T13:20:24.353Z,3.57
2019-04-26T13:22:59.387Z,4.27
2019-04-26T13:25:39.998Z,3.50
2019-04-26T14:32:53.116Z,3.83
2019-04-26T14:35:57.968Z,2.87
2019-04-26T14:41:58.306Z,3.20
2019-04-26T14:44:27.072Z,2.73
2019-04-26T14:47:13.926Z,2.60
2019-04-26T15:06:57.885Z,2.97
2019-04-26T15:09:29.699Z,2.70
2019-04-26T15:12:46.186Z,2.63
2019-04-26T15:15:09.207Z,2.83
2019-04-26T15:18:00.738Z,2.43
2019-04-26T15:21:22.831Z,2.50
2019-04-26T15:24:02.885Z,2.60
2019-04-26T15:26:32.756Z,2.03
2019-04-26T15:29:26.760Z,2.30
2019-04-26T15:31:53.784Z,1.73
2019-04-26T15:34:23.637Z,2.00
2019-04-26T15:36:54.981Z,2.00
2019-04-26T15:39:39.849Z,1.97
2019-04-26T15:42:31.476Z,2.20
2019-04-26T15:45:25.034Z,1.73
2019-04-26T15:48:08.437Z,1.70
2019-04-26T15:50:48.467Z,1.90
2019-04-26T15:53:23.989Z,1.60
2019-04-26T15:56:05.599Z,2.23
2019-04-26T15:58:38.671Z,1.90
2019-04-26T16:01:13.883Z,1.90
2019-04-26T16:03:49.690Z,1.80
2019-04-26T16:06:20.258Z,2.07
2019-04-26T16:08:49.118Z,1.80
2019-04-26T16:11:19.990Z,1.83
2019-04-26T16:13:52.200Z,2.23
2019-04-26T16:16:20.649Z,2.40
2019-04-26T16:18:53.965Z,1.67
2019-04-26T16:21:22.089Z,1.70
2019-04-26T16:23:55.354Z,2.13
2019-04-26T16:26:23.530Z,1.77
2019-04-26T16:29:24.419Z,1.70
2019-04-26T16:32:12.503Z,1.80
2019-04-26T16:34:47.542Z,2.73
2019-04-26T16:37:14.963Z,2.03
2019-04-26T16:39:48.406Z,1.83
2019-04-26T16:42:15.698Z,2.47
2019-04-26T16:44:45.046Z,3.40
2019-04-26T16:48:06.448Z,2.07
2019-04-26T16:50:44.299Z,1.70
2019-04-26T16:53:23.214Z,2.03
2019-04-26T16:55:49.225Z,2.53
2019-04-26T16:58:08.614Z,2.20
2019-04-26T17:00:50.142Z,2.40
2019-04-26T17:03:08.221Z,2.60
2019-04-26T17:05:47.762Z,2.07
2019-04-26T17:08:10.177Z,1.97
2019-04-26T17:10:38.110Z,2.53
2019-04-26T17:13:06.895Z,3.00
2019-04-26T17:15:35.696Z,2.80
2019-04-26T17:18:04.525Z,2.50
2019-04-26T17:20:33.998Z,1.90
2019-04-26T17:23:18.944Z,2.07
2019-04-26T17:26:22.430Z,1.97
2019-04-26T17:28:52.181Z,2.00
2019-04-26T17:31:22.838Z,1.67
2019-04-26T17:33:51.799Z,1.50
2019-04-26T17:36:20.581Z,1.90
2019-04-26T17:38:50.563Z,1.80
2019-04-26T17:41:19.531Z,2.00
2019-04-26T17:43:52.101Z,1.60
2019-04-26T17:46:19.992Z,1.90
2019-04-26T17:48:50.629Z,1.40
2019-04-26T17:51:22.959Z,1.77
2019-04-26T17:53:58.749Z,1.63
2019-04-26T17:56:21.499Z,1.73
2019-04-26T17:58:54.250Z,2.40
2019-04-26T18:01:39.881Z,1.80
2019-04-26T18:03:55.604Z,1.70
2019-04-26T18:06:29.457Z,1.73
2019-04-26T18:08:54.977Z,1.60
2019-04-26T18:11:24.928Z,2.00
2019-04-26T18:13:53.221Z,1.80
2019-04-26T18:16:25.071Z,1.60
2019-04-26T18:19:12.751Z,2.03
2019-04-26T18:21:56.544Z,2.33
2019-04-26T18:24:23.460Z,1.80
2019-04-26T18:26:58.907Z,2.27
2019-04-26T18:29:25.201Z,1.77
2019-04-26T18:31:53.622Z,2.03
2019-04-26T18:34:23.186Z,2.60
2019-04-26T18:36:51.824Z,1.87
2019-04-26T18:39:22.834Z,1.83
2019-04-26T18:41:50.828Z,2.03
2019-04-26T18:44:19.513Z,2.33
2019-04-26T18:46:53.650Z,1.80
2019-04-26T18:49:24.597Z,2.50
2019-04-26T18:51:52.677Z,2.77
2019-04-26T18:54:29.766Z,2.30
2019-04-26T18:57:00.167Z,2.70
2019-04-26T18:59:28.802Z,2.57
2019-04-26T19:01:57.542Z,2.97
2019-04-26T19:04:26.170Z,3.37
2019-04-26T19:06:54.862Z,3.10
2019-04-26T19:09:26.312Z,3.17
2019-04-26T19:11:56.223Z,4.33
2019-04-26T19:14:49.313Z,5.07
2019-04-26T19:17:18.390Z,4.83
2019-04-26T19:20:11.539Z,4.80
2019-04-26T19:22:41.561Z,5.10
2019-04-26T19:25:20.911Z,4.93
2019-04-26T19:27:48.192Z,4.67
2019-04-26T19:30:12.741Z,4.77
2019-04-26T19:32:41.511Z,4.97
2019-04-26T19:35:13.867Z,5.30
2019-04-26T19:37:40.548Z,5.20
2019-04-26T19:40:10.703Z,4.93
2019-04-26T19:42:39.777Z,5.30
2019-04-26T19:45:16.666Z,5.20
2019-04-26T19:48:03.134Z,5.50
2019-04-26T19:50:42.040Z,5.60
2019-04-26T19:53:28.298Z,6.30
2019-04-26T19:56:27.491Z,5.67
2019-04-26T19:58:57.604Z,5.30
2019-04-26T20:01:24.794Z,5.50
2019-04-26T20:03:55.322Z,5.30
2019-04-26T20:06:26.665Z,5.93
2019-04-26T20:08:55.215Z,6.33
2019-04-26T20:11:23.950Z,5.70
2019-04-26T20:13:55.203Z,6.30
2019-04-26T20:16:25.811Z,6.63
2019-04-26T20:18:54.058Z,6.67
2019-04-26T20:21:22.782Z,7.20
2019-04-26T20:23:54.207Z,6.00
2019-04-26T20:26:22.578Z,6.57
2019-04-26T20:28:51.549Z,6.80
2019-04-26T20:31:37.543Z,6.67
2019-04-26T20:34:10.950Z,8.80
2019-04-26T20:36:47.342Z,6.70
2019-04-26T20:39:38.636Z,7.57
2019-04-26T20:42:13.354Z,7.80
2019-04-26T20:45:11.342Z,7.03
2019-04-26T20:47:41.691Z,6.23
2019-04-26T20:50:47.418Z,7.90
2019-04-26T20:53:48.968Z,6.27
2019-04-26T20:56:28.928Z,7.73
2019-04-26T21:00:01.948Z,7.30
2019-04-26T21:05:46.083Z,7.03
2019-04-26T21:10:00.941Z,6.40
2019-04-26T21:11:59.054Z,7.50
2019-04-26T21:15:15.676Z,7.10
2019-04-26T21:17:51.974Z,7.03
2019-04-26T21:20:36.232Z,3.50
2019-04-26T21:23:04.321Z,3.67
2019-04-26T21:26:21.714Z,3.17
2019-04-26T21:29:07.588Z,2.37
2019-04-26T21:32:04.394Z,2.40
2019-04-26T21:34:44.430Z,2.00
2019-04-26T21:40:43.761Z,1.30
2019-04-26T21:46:20.191Z,1.80
2019-04-26T21:49:51.852Z,1.33
2019-04-26T21:55:32.168Z,1.00
2019-04-26T21:58:29.328Z,1.00
2019-04-26T22:01:37.008Z,1.20
2019-04-26T22:03:58.505Z,1.20
2019-04-26T22:10:29.709Z,0.90
2019-04-26T22:14:37.286Z,1.50
2019-04-26T22:16:33.380Z,0.93
2019-04-26T22:19:35.248Z,1.33
2019-04-26T22:22:49.361Z,1.23
2019-04-26T22:25:20.323Z,1.40
2019-04-26T22:28:19.611Z,1.63
2019-04-26T22:31:15.876Z,1.30
2019-04-26T22:34:07.354Z,1.37
2019-04-26T22:37:01.283Z,1.50
2019-04-26T22:39:57.831Z,1.40
2019-04-26T22:43:34.020Z,1.20
2019-04-26T22:50:38.414Z,1.93
2019-04-26T22:54:12.532Z,2.40
2019-04-26T22:57:03.917Z,3.77
2019-04-26T23:06:56.677Z,4.20
2019-04-26T23:09:59.487Z,5.20
2019-04-26T23:13:14.262Z,3.90
2019-04-26T23:16:18.362Z,5.60
2019-04-26T23:19:19.275Z,5.83
2019-04-26T23:22:07.240Z,6.10
2019-04-26T23:24:54.543Z,6.23
2019-04-26T23:27:44.120Z,7.40
2019-04-26T23:30:23.315Z,9.00
2019-04-26T23:33:44.594Z,10.10
2019-04-26T23:36:29.542Z,10.30
2019-04-26T23:40:05.895Z,12.20
2019-04-26T23:45:47.901Z,8.90
2019-04-26T23:48:17.625Z,9.40
2019-04-26T23:51:50.613Z,9.87
2019-04-26T23:54:36.146Z,10.90
2019-04-26T23:58:00.030Z,9.63
